Time;durP1;ratioP1;P1;durP2;ratioP2;P2;SDS_P1;SDS_P2;PMS_P1;PMS_P2;Temp;Humidity;BMP_temperature;BMP_pressure;BME280_temperature;BME280_humidity;BME280_pressure;Samples;Min_cycle;Max_cycle;Signal;HPM_P1;HPM_P2
2022/11/07 00:01:36;;;;;;;64.47;42.75;;;;;;;9.63;100.00;100711.72;5029949;28;20121;-68
2022/11/07 00:04:02;;;;;;;65.88;44.13;;;;;;;9.69;100.00;100718.44;5029705;28;20049;-69
2022/11/07 00:06:27;;;;;;;59.20;42.25;;;;;;;9.66;100.00;100716.84;5029501;28;20053;-69
2022/11/07 00:08:54;;;;;;;67.18;42.88;;;;;;;9.65;100.00;100720.50;5029173;28;20473;-68
2022/11/07 00:11:19;;;;;;;65.95;44.38;;;;;;;9.58;100.00;100713.94;5027009;28;20029;-68
2022/11/07 00:13:45;;;;;;;62.45;41.00;;;;;;;9.56;100.00;100721.22;5029220;28;20030;-69
2022/11/07 00:16:10;;;;;;;63.10;41.88;;;;;;;9.51;100.00;100725.22;5029317;28;20080;-70
2022/11/07 00:18:36;;;;;;;60.17;40.65;;;;;;;9.47;100.00;100721.06;5024187;28;20045;-69
2022/11/07 00:21:08;;;;;;;60.05;41.92;;;;;;;9.44;100.00;100727.50;5026704;28;20531;-68
2022/11/07 00:23:34;;;;;;;58.53;41.25;;;;;;;9.38;100.00;100722.63;5027807;28;20033;-69
2022/11/07 00:26:05;;;;;;;60.35;40.70;;;;;;;9.35;100.00;100722.00;5025872;28;20124;-68
2022/11/07 00:28:35;;;;;;;62.15;42.83;;;;;;;9.31;100.00;100728.59;5027954;28;20465;-68
2022/11/07 00:31:00;;;;;;;64.68;42.92;;;;;;;9.25;100.00;100732.56;5027934;28;20029;-69
2022/11/07 00:33:26;;;;;;;61.70;41.33;;;;;;;9.12;100.00;100713.03;5028438;28;20060;-68
2022/11/07 00:35:51;;;;;;;61.22;41.13;;;;;;;9.17;100.00;100729.63;5028965;28;20486;-69
2022/11/07 00:38:17;;;;;;;56.40;39.67;;;;;;;9.10;100.00;100725.69;5027848;28;20068;-69
2022/11/07 00:40:42;;;;;;;54.10;38.78;;;;;;;9.06;100.00;100716.19;5028726;28;20071;-66
2022/11/07 00:43:08;;;;;;;53.47;38.67;;;;;;;9.05;100.00;100722.50;5028702;28;20025;-66
2022/11/07 00:45:33;;;;;;;53.38;38.55;;;;;;;8.99;100.00;100720.28;5029310;28;20033;-65
2022/11/07 00:47:59;;;;;;;55.47;37.92;;;;;;;8.95;100.00;100719.69;5026870;28;20038;-64
2022/11/07 00:50:24;;;;;;;62.63;41.90;;;;;;;8.92;100.00;100727.06;5028743;28;20033;-65
2022/11/07 00:52:50;;;;;;;65.28;42.40;;;;;;;8.89;100.00;100724.63;5028470;28;20044;-65
2022/11/07 00:55:15;;;;;;;63.85;41.92;;;;;;;8.84;100.00;100714.25;5028396;28;20030;-66
2022/11/07 00:57:41;;;;;;;60.20;42.03;;;;;;;8.78;100.00;100720.06;5028475;28;20029;-65
2022/11/07 01:00:07;;;;;;;64.50;40.75;;;;;;;8.74;100.00;100715.06;5028345;28;20396;-65
2022/11/07 01:02:32;;;;;;;62.10;41.13;;;;;;;8.74;100.00;100725.78;5028481;28;20083;-65
2022/11/07 01:05:10;;;;;;;61.83;41.75;;;;;;;8.66;100.00;100717.44;5028170;28;20489;-65
2022/11/07 01:07:36;;;;;;;58.85;39.42;;;;;;;8.67;100.00;100729.84;5028347;28;20040;-65
2022/11/07 01:10:04;;;;;;;58.28;40.03;;;;;;;8.61;100.00;100723.13;5028520;28;20061;-65
2022/11/07 01:12:31;;;;;;;61.30;42.65;;;;;;;8.60;100.00;100720.56;5028028;28;20112;-66
2022/11/07 01:14:56;;;;;;;60.17;41.97;;;;;;;8.61;100.00;100719.63;5027967;28;20125;-65
2022/11/07 01:17:22;;;;;;;65.47;43.08;;;;;;;8.61;100.00;100715.09;5028314;28;20112;-65
2022/11/07 01:19:47;;;;;;;66.57;43.70;;;;;;;8.50;100.00;100704.34;5025431;28;20029;-66
2022/11/07 01:22:12;;;;;;;61.28;43.78;;;;;;;8.63;100.00;100721.22;5026280;28;20029;-65
2022/11/07 01:24:38;;;;;;;64.63;44.38;;;;;;;8.67;100.00;100727.16;5028111;28;20032;-65
2022/11/07 01:27:03;;;;;;;52.80;38.80;;;;;;;8.68;100.00;100731.56;5028171;28;20024;-66
2022/11/07 01:29:29;;;;;;;54.17;39.08;;;;;;;8.68;100.00;100729.72;5027050;28;20017;-64
2022/11/07 01:31:54;;;;;;;55.03;38.25;;;;;;;8.65;100.00;100726.44;5027022;28;20029;-64
2022/11/07 01:34:20;;;;;;;55.20;40.22;;;;;;;8.53;100.00;100689.91;5025617;28;20053;-66
2022/11/07 01:36:45;;;;;;;55.95;38.80;;;;;;;8.69;100.00;100722.56;5026624;28;20025;-66
2022/11/07 01:39:11;;;;;;;51.70;37.72;;;;;;;8.61;100.00;100700.91;5026471;28;20045;-65
2022/11/07 01:41:37;;;;;;;58.33;40.28;;;;;;;8.60;100.00;100708.06;5024156;28;20037;-65
2022/11/07 01:44:22;;;;;;;57.47;38.72;;;;;;;8.66;100.00;100712.97;5026899;28;20033;-65
2022/11/07 01:46:48;;;;;;;56.13;40.05;;;;;;;8.65;100.00;100708.56;5024579;28;20029;-66
2022/11/07 01:49:22;;;;;;;55.97;39.85;;;;;;;8.67;100.00;100713.78;5026604;28;20034;-66
2022/11/07 01:51:54;;;;;;;55.35;38.65;;;;;;;8.66;100.00;100712.97;5024724;28;20042;-66
2022/11/07 01:54:25;;;;;;;58.60;39.40;;;;;;;8.65;100.00;100716.56;5026198;28;20590;-64
2022/11/07 01:56:55;;;;;;;52.10;37.88;;;;;;;8.62;100.00;100707.94;5026721;28;20377;-66
2022/11/07 01:59:25;;;;;;;54.25;39.60;;;;;;;8.60;100.00;100708.06;5027143;28;20404;-65
2022/11/07 02:01:52;;;;;;;53.38;37.67;;;;;;;8.60;100.00;100709.88;5026865;28;20439;-65
2022/11/07 02:04:19;;;;;;;52.13;37.65;;;;;;;8.57;100.00;100710.09;5026498;28;20029;-64
2022/11/07 02:06:48;;;;;;;51.30;36.83;;;;;;;8.54;100.00;100699.63;5026211;28;20033;-65
2022/11/07 02:09:14;;;;;;;52.72;38.53;;;;;;;8.53;100.00;100701.47;5025298;28;20037;-65
2022/11/07 02:11:40;;;;;;;49.22;35.20;;;;;;;8.50;100.00;100699.00;5024933;28;20033;-64
2022/11/07 02:14:06;;;;;;;54.78;38.42;;;;;;;8.49;100.00;100700.00;5025252;28;20029;-65
2022/11/07 02:16:34;;;;;;;54.35;39.15;;;;;;;8.44;100.00;100688.75;5026067;28;20025;-65
2022/11/07 02:19:00;;;;;;;61.20;41.22;;;;;;;8.45;100.00;100703.81;5026264;28;20117;-65
2022/11/07 02:21:57;;;;;;;52.53;38.85;;;;;;;8.43;100.00;100705.78;5026566;28;20045;-66
2022/11/07 02:24:30;;;;;;;53.65;38.35;;;;;;;8.39;100.00;100690.06;5026055;28;20033;-65
2022/11/07 02:26:57;;;;;;;51.13;37.83;;;;;;;8.34;100.00;100695.75;5024942;28;20116;-65
2022/11/07 02:29:25;;;;;;;51.53;38.13;;;;;;;8.38;100.00;100715.94;5024062;28;20576;-66
2022/11/07 02:32:08;;;;;;;56.40;38.00;;;;;;;8.32;100.00;100712.88;5025627;28;20064;-66
2022/11/07 02:34:34;;;;;;;52.25;38.17;;;;;;;8.29;100.00;100719.25;5025418;28;20481;-66
2022/11/07 02:37:02;;;;;;;52.38;38.72;;;;;;;8.25;100.00;100711.56;5024742;28;20040;-66
2022/11/07 02:39:28;;;;;;;55.35;38.90;;;;;;;8.21;100.00;100718.06;5025252;28;20571;-65
2022/11/07 02:41:57;;;;;;;53.67;38.85;;;;;;;8.19;100.00;100723.53;5025248;28;20026;-66
2022/11/07 02:44:22;;;;;;;52.70;36.75;;;;;;;8.19;100.00;100717.34;5025092;28;20036;-65
2022/11/07 02:46:48;;;;;;;64.45;41.20;;;;;;;8.16;100.00;100712.22;5024642;28;20021;-66
2022/11/07 02:49:14;;;;;;;59.63;41.72;;;;;;;8.12;100.00;100716.06;5025326;28;20033;-65
2022/11/07 02:51:39;;;;;;;63.00;42.28;;;;;;;8.05;100.00;100718.31;5024852;28;20037;-65
2022/11/07 02:54:04;;;;;;;58.95;41.35;;;;;;;8.04;100.00;100731.78;5024466;28;20034;-68
2022/11/07 02:56:30;;;;;;;67.25;41.53;;;;;;;8.04;100.00;100739.81;5026196;28;20036;-68
2022/11/07 02:58:55;;;;;;;65.78;41.42;;;;;;;7.98;100.00;100734.88;5025492;28;20029;-70
2022/11/07 03:01:21;;;;;;;51.50;36.85;;;;;;;7.98;100.00;100740.22;5024791;28;20021;-69
2022/11/07 03:03:49;;;;;;;56.53;38.38;;;;;;;7.97;100.00;100744.72;5025861;28;20025;-69
2022/11/07 03:06:23;;;;;;;60.85;40.35;;;;;;;7.95;100.00;100746.66;5026680;28;20065;-69
2022/11/07 03:08:48;;;;;;;49.05;36.92;;;;;;;7.94;100.00;100750.28;5026420;28;20029;-70
2022/11/07 03:11:18;;;;;;;49.03;35.97;;;;;;;7.93;100.00;100745.06;5026206;28;20037;-69
2022/11/07 03:13:48;;;;;;;48.63;35.92;;;;;;;7.96;100.00;100747.50;5023897;28;20029;-70
2022/11/07 03:16:14;;;;;;;49.22;35.85;;;;;;;7.92;100.00;100738.84;5026239;28;20118;-69
2022/11/07 03:18:40;;;;;;;45.08;34.67;;;;;;;7.98;100.00;100745.56;5026079;28;20025;-70
2022/11/07 03:21:06;;;;;;;47.72;33.13;;;;;;;7.99;100.00;100752.59;5026287;28;20066;-69
2022/11/07 03:23:33;;;;;;;39.15;29.92;;;;;;;8.05;100.00;100753.06;5026109;28;20503;-69
2022/11/07 03:25:58;;;;;;;37.63;28.58;;;;;;;8.05;100.00;100747.72;5026545;28;20029;-69
2022/11/07 03:28:24;;;;;;;39.83;29.90;;;;;;;8.03;100.00;100748.78;5026472;28;20055;-69
2022/11/07 03:30:49;;;;;;;41.38;32.05;;;;;;;7.89;100.00;100733.72;5024886;28;20052;-69
2022/11/07 03:33:15;;;;;;;39.58;30.85;;;;;;;8.06;100.00;100757.41;5025590;28;20041;-69
2022/11/07 03:35:41;;;;;;;40.88;30.42;;;;;;;8.10;100.00;100758.91;5022863;28;20035;-69
2022/11/07 03:38:07;;;;;;;34.85;27.63;;;;;;;8.12;100.00;100754.31;5026155;28;20133;-69
2022/11/07 03:40:32;;;;;;;36.38;29.08;;;;;;;8.14;100.00;100765.75;5025634;28;20033;-69
2022/11/07 03:42:58;;;;;;;34.72;27.67;;;;;;;8.17;100.00;100767.34;5024979;28;20025;-69
2022/11/07 03:45:23;;;;;;;36.35;29.25;;;;;;;8.14;100.00;100751.53;5025409;28;20516;-70
2022/11/07 03:47:49;;;;;;;33.47;26.98;;;;;;;8.22;100.00;100762.59;5025179;28;20025;-69
2022/11/07 03:50:17;;;;;;;37.15;29.58;;;;;;;8.20;100.00;100762.66;5025871;28;20037;-71
2022/11/07 03:52:43;;;;;;;33.83;26.73;;;;;;;8.20;100.00;100746.63;5025166;28;20033;-70
2022/11/07 03:55:10;;;;;;;32.72;27.25;;;;;;;8.32;100.00;100769.81;5025703;28;20032;-68
2022/11/07 03:57:36;;;;;;;33.88;27.88;;;;;;;8.37;100.00;100772.16;5025459;28;20217;-69
2022/11/07 04:00:03;;;;;;;35.78;27.83;;;;;;;8.38;100.00;100766.72;5025031;28;20396;-70
2022/11/07 04:02:28;;;;;;;36.63;29.13;;;;;;;8.40;100.00;100767.47;5025337;28;20522;-69
2022/11/07 04:04:54;;;;;;;37.00;27.73;;;;;;;8.45;100.00;100767.13;5025113;28;20053;-70
2022/11/07 04:07:19;;;;;;;34.13;27.48;;;;;;;8.48;100.00;100753.56;5025608;28;20090;-69
2022/11/07 04:09:45;;;;;;;36.70;27.73;;;;;;;8.51;100.00;100758.66;5024885;28;20510;-70
2022/11/07 04:17:38;;;;;;;35.78;27.10;;;;;;;8.62;100.00;100759.63;5029242;28;20084;-69
2022/11/07 04:20:04;;;;;;;36.88;29.17;;;;;;;8.62;100.00;100753.41;5028547;28;20442;-69
2022/11/07 04:22:31;;;;;;;34.67;27.50;;;;;;;8.66;100.00;100763.75;5028825;28;20033;-70
2022/11/07 04:24:56;;;;;;;35.38;27.27;;;;;;;8.66;100.00;100754.88;5028714;28;20393;-70
2022/11/07 04:30:18;;;;;;;35.38;26.73;;;;;;;8.71;100.00;100760.75;5028799;28;20056;-70
2022/11/07 04:32:51;;;;;;;36.22;27.85;;;;;;;8.71;100.00;100763.44;5028196;28;20106;-70
2022/11/07 04:35:18;;;;;;;32.93;25.70;;;;;;;8.74;100.00;100777.41;5027914;28;20132;-69
2022/11/07 04:37:43;;;;;;;33.65;25.63;;;;;;;8.72;100.00;100760.66;5029356;28;20033;-69
2022/11/07 04:40:09;;;;;;;33.03;26.25;;;;;;;8.74;100.00;100760.53;5029516;28;20059;-68
2022/11/07 04:42:35;;;;;;;34.85;27.27;;;;;;;8.80;100.00;100778.78;5029225;28;20033;-65
2022/11/07 04:45:01;;;;;;;32.63;26.25;;;;;;;8.70;100.00;100759.03;5028610;28;20025;-66
2022/11/07 04:47:26;;;;;;;32.30;25.90;;;;;;;8.82;100.00;100785.75;5028772;28;20033;-65
2022/11/07 04:49:51;;;;;;;35.17;26.95;;;;;;;8.77;100.00;100773.69;5028853;28;20079;-65
2022/11/07 04:52:17;;;;;;;32.92;26.40;;;;;;;8.84;100.00;100788.31;5029238;28;20040;-66
2022/11/07 04:54:42;;;;;;;30.13;24.75;;;;;;;8.90;100.00;100791.38;5028908;28;20044;-66
2022/11/07 04:57:08;;;;;;;29.10;23.42;;;;;;;9.04;100.00;100788.56;5028681;28;20032;-65
2022/11/07 04:59:33;;;;;;;31.92;24.90;;;;;;;9.07;100.00;100788.31;5028994;28;20052;-66
2022/11/07 05:02:00;;;;;;;31.48;25.90;;;;;;;8.92;100.00;100777.88;5028768;28;20021;-65
2022/11/07 05:04:25;;;;;;;31.95;25.23;;;;;;;8.97;100.00;100789.94;5028697;28;20033;-65
2022/11/07 05:06:51;;;;;;;32.25;25.15;;;;;;;8.81;100.00;100781.34;5028693;28;20416;-66
2022/11/07 05:09:17;;;;;;;37.40;26.80;;;;;;;8.89;100.00;100807.53;5026750;28;20389;-65
2022/11/07 05:11:46;;;;;;;34.28;25.60;;;;;;;8.94;100.00;100797.38;5029187;28;20075;-66
2022/11/07 05:14:12;;;;;;;39.22;27.25;;;;;;;8.90;100.00;100795.88;5028959;28;20425;-66
2022/11/07 05:16:40;;;;;;;35.65;26.00;;;;;;;8.81;100.00;100791.22;5027211;28;20053;-65
2022/11/07 05:19:05;;;;;;;39.42;28.38;;;;;;;8.89;100.00;100804.84;5028423;28;20037;-65
2022/11/07 05:21:31;;;;;;;40.67;27.92;;;;;;;8.86;100.00;100805.06;5028304;28;20050;-66
2022/11/07 05:23:56;;;;;;;38.22;27.02;;;;;;;8.88;100.00;100805.84;5028128;28;20025;-66
2022/11/07 05:26:22;;;;;;;36.35;26.05;;;;;;;8.91;100.00;100819.81;5028458;28;20035;-66
2022/11/07 05:28:47;;;;;;;38.10;26.80;;;;;;;8.91;100.00;100808.28;5026703;28;20043;-65
2022/11/07 05:31:16;;;;;;;35.85;26.77;;;;;;;8.94;100.00;100808.91;5028811;28;20048;-65
2022/11/07 05:33:42;;;;;;;40.00;28.48;;;;;;;8.89;100.00;100796.84;5027329;28;20029;-65
2022/11/07 05:36:19;;;;;;;39.88;27.90;;;;;;;9.00;100.00;100808.44;5027020;28;20395;-66
2022/11/07 05:38:47;;;;;;;40.03;29.38;;;;;;;9.01;100.00;100799.47;5027451;28;20033;-65
2022/11/07 05:41:14;;;;;;;42.85;28.52;;;;;;;9.04;100.00;100809.09;5027115;28;20040;-66
2022/11/07 05:43:39;;;;;;;40.72;29.10;;;;;;;8.96;100.00;100782.91;5026915;28;20167;-66
2022/11/07 05:46:05;;;;;;;42.00;28.88;;;;;;;8.98;100.00;100775.63;5025816;28;20037;-65
2022/11/07 05:48:31;;;;;;;40.50;28.98;;;;;;;8.98;100.00;100772.09;5027462;28;20025;-66
2022/11/07 05:50:57;;;;;;;41.22;29.52;;;;;;;9.11;100.00;100778.25;5027161;28;20032;-66
2022/11/07 05:53:24;;;;;;;40.95;27.67;;;;;;;9.09;100.00;100777.47;5027088;28;20045;-67
2022/11/07 05:55:51;;;;;;;38.17;27.38;;;;;;;9.09;100.00;100774.81;5027818;28;20099;-66
2022/11/07 05:58:18;;;;;;;35.88;25.58;;;;;;;9.21;100.00;100789.97;5026370;28;20041;-65
2022/11/07 06:00:44;;;;;;;33.15;25.15;;;;;;;9.23;100.00;100788.03;5027585;28;20029;-66
2022/11/07 06:03:10;;;;;;;34.13;25.20;;;;;;;9.21;100.00;100776.56;5027732;28;20511;-65
2022/11/07 06:05:38;;;;;;;37.13;26.15;;;;;;;9.26;100.00;100782.47;5027658;28;20104;-66
2022/11/07 06:08:04;;;;;;;32.13;24.45;;;;;;;9.22;100.00;100788.97;5027474;28;20123;-66
2022/11/07 06:10:30;;;;;;;33.10;23.35;;;;;;;9.41;100.00;100804.53;5027322;28;20029;-65
2022/11/07 06:12:58;;;;;;;32.88;22.85;;;;;;;9.31;100.00;100785.63;5027737;28;20036;-65
2022/11/07 06:15:23;;;;;;;35.03;24.88;;;;;;;9.40;100.00;100795.66;5027382;28;20064;-65
2022/11/07 06:17:49;;;;;;;34.78;24.17;;;;;;;9.58;100.00;100818.38;5027186;28;20492;-65
2022/11/07 06:20:14;;;;;;;34.25;22.98;;;;;;;9.68;100.00;100808.66;5027689;28;20024;-66
2022/11/07 06:22:40;;;;;;;30.63;22.63;;;;;;;9.78;100.00;100816.84;5027450;28;20037;-66
2022/11/07 06:25:05;;;;;;;33.28;23.45;;;;;;;9.69;100.00;100807.69;5027380;28;20026;-66
2022/11/07 06:27:31;;;;;;;34.60;24.27;;;;;;;9.69;100.00;100826.44;5027332;28;20079;-66
2022/11/07 06:29:56;;;;;;;31.67;23.90;;;;;;;9.75;100.00;100838.50;5027241;28;20021;-66
2022/11/07 06:32:22;;;;;;;36.80;25.25;;;;;;;9.81;100.00;100840.72;5027462;28;20481;-66
2022/11/07 06:34:47;;;;;;;37.00;26.40;;;;;;;9.77;100.00;100845.44;5026732;28;20025;-66
2022/11/07 06:37:12;;;;;;;39.50;26.75;;;;;;;9.78;100.00;100851.66;5027275;28;20021;-65
2022/11/07 06:39:38;;;;;;;37.80;25.42;;;;;;;9.85;100.00;100847.53;5027337;28;20037;-66
2022/11/07 06:42:03;;;;;;;49.50;31.42;;;;;;;9.94;100.00;100857.56;5027100;28;20040;-66
2022/11/07 06:44:29;;;;;;;48.10;30.05;;;;;;;10.01;100.00;100865.00;5026923;28;20060;-66
2022/11/07 06:46:54;;;;;;;55.97;32.38;;;;;;;10.03;100.00;100860.38;5026766;28;20068;-64
2022/11/07 06:49:20;;;;;;;47.72;30.85;;;;;;;10.03;100.00;100864.91;5027025;28;20029;-66
2022/11/07 06:51:45;;;;;;;44.83;29.90;;;;;;;10.10;100.00;100868.84;5027005;28;20033;-66
2022/11/07 06:54:12;;;;;;;55.03;32.55;;;;;;;10.08;100.00;100870.78;5026467;28;20072;-66
2022/11/07 06:56:37;;;;;;;50.60;31.48;;;;;;;9.98;100.00;100873.28;5026188;28;20078;-67
2022/11/07 06:59:03;;;;;;;48.13;30.92;;;;;;;9.97;100.00;100873.41;5025692;28;20025;-65
2022/11/07 07:01:28;;;;;;;48.20;28.25;;;;;;;10.00;100.00;100860.59;5026686;28;20465;-65
2022/11/07 07:03:54;;;;;;;43.28;27.45;;;;;;;10.11;100.00;100881.25;5025863;28;20036;-66
2022/11/07 07:06:20;;;;;;;43.60;28.40;;;;;;;10.05;100.00;100858.44;5025976;28;20050;-65
2022/11/07 07:08:46;;;;;;;38.90;26.02;;;;;;;10.06;100.00;100878.06;5026548;28;20816;-65
2022/11/07 07:11:13;;;;;;;37.85;25.63;;;;;;;10.02;100.00;100868.53;5026805;28;20099;-65
2022/11/07 07:13:39;;;;;;;40.17;26.50;;;;;;;10.18;100.00;100891.38;5026952;28;20389;-66
2022/11/07 07:16:05;;;;;;;38.53;26.35;;;;;;;10.11;100.00;100890.16;5026819;28;20030;-66
2022/11/07 07:18:31;;;;;;;46.53;29.52;;;;;;;10.14;100.00;100887.25;5027228;28;20086;-66
2022/11/07 07:21:10;;;;;;;53.97;36.03;;;;;;;10.15;100.00;100891.63;5026988;28;20025;-66
2022/11/07 07:23:37;;;;;;;88.82;53.55;;;;;;;10.17;100.00;100887.00;5024630;28;20036;-66
2022/11/07 07:26:05;;;;;;;107.47;63.97;;;;;;;10.09;100.00;100869.81;5026700;28;20541;-65
2022/11/07 07:28:31;;;;;;;108.47;68.60;;;;;;;10.16;100.00;100884.44;5026861;28;20069;-64
2022/11/07 07:31:12;;;;;;;109.82;64.18;;;;;;;10.11;100.00;100868.72;5025827;28;20618;-66
2022/11/07 07:33:37;;;;;;;110.55;67.20;;;;;;;10.12;100.00;100869.59;5026807;28;20041;-66
2022/11/07 07:36:03;;;;;;;110.47;65.03;;;;;;;10.15;100.00;100869.31;5026313;28;20026;-66
2022/11/07 07:38:29;;;;;;;116.85;71.20;;;;;;;10.19;100.00;100868.13;5026930;28;20111;-65
2022/11/07 07:40:57;;;;;;;112.40;68.85;;;;;;;10.27;100.00;100879.97;5026780;28;20032;-66
2022/11/07 07:43:22;;;;;;;106.82;63.83;;;;;;;10.37;100.00;100877.41;5026518;28;20029;-66
2022/11/07 07:45:48;;;;;;;100.60;62.08;;;;;;;10.42;100.00;100877.91;5026305;28;20031;-65
2022/11/07 07:48:13;;;;;;;86.32;54.25;;;;;;;10.46;100.00;100877.56;5030211;28;20366;-65
2022/11/07 07:50:39;;;;;;;69.63;43.45;;;;;;;10.54;100.00;100876.94;5030251;28;20094;-66
2022/11/07 07:53:04;;;;;;;64.55;39.70;;;;;;;10.62;100.00;100880.75;5030176;28;20047;-66
2022/11/07 07:55:30;;;;;;;49.53;31.77;;;;;;;10.75;100.00;100877.94;5028688;28;20026;-66
2022/11/07 07:57:55;;;;;;;49.22;31.90;;;;;;;10.75;100.00;100886.84;5029878;28;20026;-66
2022/11/07 08:00:20;;;;;;;48.85;30.25;;;;;;;10.79;100.00;100893.66;5029311;28;20040;-64
2022/11/07 08:02:46;;;;;;;47.97;31.52;;;;;;;10.81;100.00;100891.69;5030172;28;20021;-66
2022/11/07 08:05:13;;;;;;;44.85;31.08;;;;;;;10.87;100.00;100890.38;5030093;28;20041;-65
2022/11/07 08:07:49;;;;;;;41.92;29.50;;;;;;;10.91;100.00;100891.84;5030190;28;20029;-66
2022/11/07 08:10:17;;;;;;;46.88;29.90;;;;;;;10.96;100.00;100885.13;5030071;28;20649;-66
2022/11/07 08:12:46;;;;;;;46.47;30.33;;;;;;;11.02;100.00;100894.50;5028575;28;20035;-65
2022/11/07 08:15:13;;;;;;;48.60;31.90;;;;;;;11.04;100.00;100888.06;5029915;28;20102;-66
2022/11/07 08:17:40;;;;;;;44.55;30.00;;;;;;;11.10;100.00;100884.00;5029420;28;20025;-66
2022/11/07 08:20:08;;;;;;;43.42;28.77;;;;;;;11.07;100.00;100873.50;5030152;28;20116;-66
2022/11/07 08:22:34;;;;;;;41.03;28.50;;;;;;;11.10;100.00;100876.78;5030027;28;20033;-66
2022/11/07 08:24:59;;;;;;;43.33;29.00;;;;;;;11.28;100.00;100886.03;5029506;28;20088;-66
2022/11/07 08:27:25;;;;;;;46.20;29.00;;;;;;;11.30;100.00;100894.84;5029133;28;20029;-65
2022/11/07 08:29:50;;;;;;;43.15;28.33;;;;;;;11.31;100.00;100896.53;5029925;28;20037;-65
2022/11/07 08:32:15;;;;;;;45.28;29.23;;;;;;;11.36;100.00;100893.47;5029798;28;20051;-66
2022/11/07 08:34:41;;;;;;;38.33;25.70;;;;;;;11.42;100.00;100893.81;5028881;28;20446;-66
2022/11/07 08:37:06;;;;;;;39.92;27.48;;;;;;;11.73;100.00;100902.06;5027718;28;20476;-65
2022/11/07 08:39:32;;;;;;;42.83;27.23;;;;;;;11.72;100.00;100903.91;5029349;28;20033;-65
2022/11/07 08:41:57;;;;;;;40.85;27.15;;;;;;;11.69;100.00;100903.28;5029428;28;20041;-66
2022/11/07 08:44:23;;;;;;;43.67;28.55;;;;;;;11.67;100.00;100908.78;5026749;28;20104;-66
2022/11/07 08:46:49;;;;;;;43.58;27.88;;;;;;;11.67;100.00;100919.53;5025176;28;20040;-67
2022/11/07 08:49:15;;;;;;;45.70;27.95;;;;;;;11.76;100.00;100908.03;5026938;28;20469;-65
2022/11/07 08:51:40;;;;;;;39.75;26.05;;;;;;;11.85;100.00;100906.41;5027592;28;20108;-65
2022/11/07 08:54:05;;;;;;;36.08;23.20;;;;;;;12.03;100.00;100904.88;5028433;28;20032;-66
2022/11/07 08:56:32;;;;;;;33.75;22.15;;;;;;;12.04;100.00;100894.00;5028873;28;20379;-64
2022/11/07 08:58:57;;;;;;;32.55;22.13;;;;;;;12.13;100.00;100917.41;5028035;28;20563;-65
2022/11/07 09:01:23;;;;;;;34.13;21.88;;;;;;;12.21;100.00;100925.66;5028790;28;20033;-66
2022/11/07 09:03:48;;;;;;;37.20;24.48;;;;;;;12.17;100.00;100913.47;5028878;28;20473;-64
2022/11/07 09:06:14;;;;;;;38.60;23.88;;;;;;;12.17;100.00;100920.69;5029109;28;20048;-66
2022/11/07 09:08:39;;;;;;;38.78;24.45;;;;;;;12.19;100.00;100916.88;5028718;28;20131;-66
2022/11/07 09:11:05;;;;;;;39.78;25.55;;;;;;;12.21;100.00;100919.44;5028281;28;20037;-66
2022/11/07 09:13:32;;;;;;;41.60;25.58;;;;;;;12.25;100.00;100918.22;5028971;28;20044;-69
2022/11/07 09:15:59;;;;;;;42.22;26.52;;;;;;;12.37;100.00;100917.13;5028021;28;20029;-69
2022/11/07 09:18:25;;;;;;;46.63;27.92;;;;;;;12.39;100.00;100923.25;5028659;28;20037;-69
2022/11/07 09:20:51;;;;;;;48.38;28.20;;;;;;;12.41;100.00;100915.91;5028472;28;20029;-70
2022/11/07 09:23:16;;;;;;;46.60;28.23;;;;;;;12.43;100.00;100920.16;5027276;28;20056;-69
2022/11/07 09:25:42;;;;;;;46.20;28.88;;;;;;;12.46;100.00;100925.28;5028034;28;20051;-70
2022/11/07 09:28:08;;;;;;;46.03;27.42;;;;;;;12.48;100.00;100917.91;5028398;28;20033;-70
2022/11/07 09:30:33;;;;;;;48.70;30.02;;;;;;;12.57;100.00;100927.03;5028422;28;20033;-70
2022/11/07 09:32:59;;;;;;;46.15;28.67;;;;;;;12.58;100.00;100913.44;5028252;28;20026;-70
2022/11/07 09:35:25;;;;;;;44.00;27.00;;;;;;;12.64;100.00;100918.31;5028143;28;20123;-69
2022/11/07 09:37:51;;;;;;;45.95;29.02;;;;;;;12.71;100.00;100929.41;5027781;28;20432;-68
2022/11/07 09:40:40;;;;;;;49.65;29.73;;;;;;;12.77;100.00;100926.19;5028345;28;20071;-69
2022/11/07 09:43:40;;;;;;;46.22;28.38;;;;;;;12.83;100.00;100931.03;5027759;28;20039;-70
2022/11/07 09:46:15;;;;;;;55.10;32.83;;;;;;;12.88;100.00;100926.09;5027311;28;20037;-69
2022/11/07 09:48:45;;;;;;;45.05;28.52;;;;;;;13.21;100.00;100932.06;5027938;28;20033;-68
2022/11/07 09:51:28;;;;;;;43.60;28.73;;;;;;;13.35;100.00;100930.84;5027706;28;20025;-69
2022/11/07 09:53:58;;;;;;;42.88;27.38;;;;;;;13.29;100.00;100921.44;5025636;28;20025;-69
2022/11/07 09:56:25;;;;;;;55.63;34.70;;;;;;;13.42;100.00;100926.59;5027742;28;20480;-69
2022/11/07 09:58:53;;;;;;;45.35;31.23;;;;;;;13.25;100.00;100913.78;5027451;28;20550;-68
2022/11/07 10:01:19;;;;;;;47.25;31.50;;;;;;;13.31;100.00;100926.69;5027593;28;20381;-69
2022/11/07 10:03:45;;;;;;;38.78;27.27;;;;;;;13.23;100.00;100913.91;5028233;28;20463;-69
2022/11/07 10:06:27;;;;;;;52.83;30.27;;;;;;;13.35;100.00;100922.78;5027440;28;20042;-70
2022/11/07 10:09:17;;;;;;;50.25;30.55;;;;;;;13.29;100.00;100920.63;5025239;28;20033;-68
2022/11/07 10:11:42;;;;;;;44.33;29.15;;;;;;;13.24;100.00;100920.16;5024776;28;20476;-69
2022/11/07 10:14:32;;;;;;;45.85;30.88;;;;;;;13.26;100.00;100921.72;5027430;28;20063;-69
2022/11/07 10:17:21;;;;;;;46.67;30.38;;;;;;;13.21;100.00;100913.22;5027315;28;20043;-70
2022/11/07 10:19:46;;;;;;;53.53;32.10;;;;;;;13.38;100.00;100923.31;5027853;28;20063;-69
2022/11/07 10:22:21;;;;;;;49.17;31.50;;;;;;;13.41;100.00;100914.09;5027559;28;20104;-70
2022/11/07 10:25:12;;;;;;;52.40;32.45;;;;;;;13.38;100.00;100909.84;5027465;28;20037;-70
2022/11/07 10:27:38;;;;;;;47.83;32.70;;;;;;;13.39;100.00;100910.72;5027133;28;20033;-69
2022/11/07 10:30:16;;;;;;;47.00;31.98;;;;;;;13.24;100.00;100893.22;5025532;28;20090;-68
2022/11/07 10:33:02;;;;;;;46.72;32.17;;;;;;;13.28;100.00;100898.19;5027639;28;20069;-70
2022/11/07 10:35:35;;;;;;;51.92;33.30;;;;;;;13.23;100.00;100892.34;5027175;28;20056;-70
2022/11/07 10:38:22;;;;;;;52.08;34.20;;;;;;;13.57;100.00;100901.81;5026621;28;20021;-70
2022/11/07 10:40:50;;;;;;;56.33;34.20;;;;;;;13.38;100.00;100884.75;5027222;28;20426;-70
2022/11/07 10:43:38;;;;;;;56.28;34.65;;;;;;;13.45;100.00;100900.22;5027402;28;20032;-69
2022/11/07 10:46:12;;;;;;;53.03;35.22;;;;;;;13.45;100.00;100894.00;5026788;28;20102;-69
2022/11/07 10:48:49;;;;;;;56.17;34.58;;;;;;;13.45;100.00;100896.69;5026808;28;20037;-69
2022/11/07 10:51:14;;;;;;;54.15;35.10;;;;;;;13.52;100.00;100892.44;5025875;28;20025;-69
2022/11/07 10:53:43;;;;;;;51.38;34.25;;;;;;;13.48;100.00;100891.03;5025362;28;20045;-69
2022/11/07 10:56:11;;;;;;;54.00;34.00;;;;;;;13.46;100.00;100895.69;5026769;28;20511;-69
2022/11/07 10:58:44;;;;;;;53.63;34.72;;;;;;;13.46;100.00;100893.00;5026721;28;20156;-69
2022/11/07 11:01:10;;;;;;;52.83;33.08;;;;;;;13.51;100.00;100891.59;5026389;28;20033;-70
2022/11/07 11:03:44;;;;;;;57.83;33.03;;;;;;;13.60;100.00;100895.28;5026919;28;20042;-69
2022/11/07 11:06:16;;;;;;;52.53;34.00;;;;;;;13.63;100.00;100887.78;5025140;28;20046;-69
2022/11/07 11:08:42;;;;;;;57.17;34.65;;;;;;;13.64;100.00;100886.78;5026678;28;20449;-66
2022/11/07 11:11:30;;;;;;;58.53;34.80;;;;;;;13.67;100.00;100888.34;5025216;28;20025;-66
2022/11/07 11:14:13;;;;;;;58.25;34.65;;;;;;;13.52;100.00;100871.72;5026256;28;20069;-66
2022/11/07 11:16:41;;;;;;;56.15;31.60;;;;;;;13.52;100.00;100873.59;5026740;28;20056;-65
2022/11/07 11:19:18;;;;;;;51.70;30.65;;;;;;;13.59;100.00;100880.13;5026589;28;20041;-66